Time;durP1;ratioP1;P1;durP2;ratioP2;P2;SDS_P1;SDS_P2;PMS_P1;PMS_P2;Temp;Humidity;BMP_temperature;BMP_pressure;BME280_temperature;BME280_humidity;BME280_pressure;Samples;Min_cycle;Max_cycle;Signal;HPM_P1;HPM_P2
2021/06/26 00:01:24;;;;;;;3.00;2.73;;;18.40;99.90;;;;;;4954929;28;20175;-74
2021/06/26 00:03:49;;;;;;;2.40;2.20;;;18.40;99.90;;;;;;4966256;28;20437;-74
2021/06/26 00:06:15;;;;;;;1.60;1.50;;;18.50;99.90;;;;;;4952841;29;20213;-74
2021/06/26 00:08:40;;;;;;;1.70;1.60;;;18.40;99.90;;;;;;4953485;28;20206;-74
2021/06/26 00:11:06;;;;;;;3.03;1.93;;;18.40;99.90;;;;;;4953472;28;20564;-74
2021/06/26 00:13:32;;;;;;;1.40;1.30;;;18.40;99.90;;;;;;4951532;28;20198;-75
2021/06/26 00:15:57;;;;;;;9.00;3.30;;;18.30;99.90;;;;;;4955663;28;20183;-75
2021/06/26 00:18:23;;;;;;;1.43;1.33;;;18.40;99.90;;;;;;4954658;28;20198;-75
2021/06/26 00:20:49;;;;;;;2.50;1.90;;;18.30;99.90;;;;;;4953917;29;20209;-75
2021/06/26 00:23:14;;;;;;;3.43;1.87;;;18.30;99.90;;;;;;4951147;29;20178;-75
2021/06/26 00:25:40;;;;;;;3.43;1.63;;;18.30;99.90;;;;;;4955046;29;20265;-75
2021/06/26 00:28:06;;;;;;;2.17;2.03;;;18.30;99.90;;;;;;4955011;28;20198;-75
2021/06/26 00:30:31;;;;;;;1.37;1.27;;;18.20;99.90;;;;;;4955261;28;20433;-75
2021/06/26 00:32:57;;;;;;;3.60;2.20;;;18.20;99.90;;;;;;4948232;28;20620;-75
2021/06/26 00:35:23;;;;;;;3.23;2.10;;;18.20;99.90;;;;;;4952637;28;20667;-75
2021/06/26 00:37:48;;;;;;;5.70;2.13;;;18.20;99.90;;;;;;4951153;28;20195;-75
2021/06/26 00:40:14;;;;;;;3.80;2.23;;;18.20;99.90;;;;;;4954826;29;20560;-75
2021/06/26 00:42:42;;;;;;;1.93;1.83;;;18.10;99.90;;;;;;4955107;28;20519;-75
2021/06/26 00:45:09;;;;;;;2.53;2.13;;;18.10;99.90;;;;;;4950251;28;20944;-75
2021/06/26 00:47:35;;;;;;;2.50;1.77;;;18.20;99.90;;;;;;4949330;29;20992;-75
2021/06/26 00:50:03;;;;;;;1.97;1.73;;;18.10;99.90;;;;;;4946586;29;20457;-75
2021/06/26 00:52:28;;;;;;;3.13;2.20;;;18.10;99.90;;;;;;4953043;28;20425;-75
2021/06/26 00:54:54;;;;;;;2.57;2.03;;;18.10;99.90;;;;;;4939307;28;20481;-75
2021/06/26 00:57:20;;;;;;;3.67;2.77;;;18.00;99.90;;;;;;4949405;28;20644;-75
2021/06/26 00:59:49;;;;;;;1.10;1.00;;;18.10;99.90;;;;;;4945992;29;20189;-75
2021/06/26 01:02:15;;;;;;;3.07;2.80;;;18.00;99.90;;;;;;4944887;29;20427;-75
2021/06/26 01:04:40;;;;;;;2.73;2.53;;;18.00;99.90;;;;;;4949158;29;20457;-74
2021/06/26 01:07:06;;;;;;;2.70;2.50;;;18.00;99.90;;;;;;4953942;28;20572;-75
2021/06/26 01:09:32;;;;;;;1.33;0.97;;;18.00;99.90;;;;;;4953877;29;20202;-75
2021/06/26 01:11:58;;;;;;;1.40;1.30;;;18.00;99.90;;;;;;4954168;29;20916;-74
2021/06/26 01:14:28;;;;;;;7.27;1.20;;;18.00;99.90;;;;;;4954979;28;20205;-75
2021/06/26 01:16:53;;;;;;;1.73;1.43;;;17.90;99.90;;;;;;4936455;29;20769;-74
2021/06/26 01:19:19;;;;;;;2.10;1.50;;;17.90;99.90;;;;;;4951377;29;20468;-75
2021/06/26 01:21:44;;;;;;;3.67;3.30;;;17.90;99.90;;;;;;4952930;28;20182;-75
2021/06/26 01:24:10;;;;;;;1.77;1.67;;;17.90;99.90;;;;;;4952433;29;20182;-75
2021/06/26 01:26:36;;;;;;;5.10;2.07;;;17.80;99.90;;;;;;4949430;29;20526;-75
2021/06/26 01:29:08;;;;;;;3.80;2.50;;;17.80;99.90;;;;;;4945101;29;20249;-75
2021/06/26 01:31:34;;;;;;;1.50;1.40;;;17.80;99.90;;;;;;4967509;28;20438;-75
2021/06/26 01:33:59;;;;;;;4.20;3.80;;;17.80;99.90;;;;;;4953755;29;20462;-75
2021/06/26 01:36:25;;;;;;;2.70;2.50;;;17.70;99.90;;;;;;4953282;29;20214;-75
2021/06/26 01:38:55;;;;;;;3.47;2.30;;;17.70;99.90;;;;;;4951951;28;20209;-74
2021/06/26 01:41:23;;;;;;;1.10;1.00;;;17.70;99.90;;;;;;4953296;29;20237;-74
2021/06/26 01:43:48;;;;;;;3.70;2.70;;;17.70;99.90;;;;;;4953702;28;20433;-75
2021/06/26 01:46:14;;;;;;;1.97;1.23;;;17.70;99.90;;;;;;4952361;28;20518;-75
2021/06/26 01:48:39;;;;;;;2.10;1.90;;;17.70;99.90;;;;;;4953345;28;20763;-74
2021/06/26 01:51:05;;;;;;;2.73;2.20;;;17.70;99.90;;;;;;4953618;29;20197;-75
2021/06/26 01:53:30;;;;;;;2.33;2.13;;;17.70;99.90;;;;;;4952954;28;20220;-75
2021/06/26 01:55:56;;;;;;;1.67;1.57;;;17.70;99.90;;;;;;4944153;29;20223;-74
2021/06/26 01:58:22;;;;;;;1.63;1.27;;;17.60;99.90;;;;;;4950946;29;20203;-74
2021/06/26 02:00:47;;;;;;;2.40;2.20;;;17.60;99.90;;;;;;4951482;29;20174;-75
2021/06/26 02:03:13;;;;;;;5.23;2.27;;;17.60;99.90;;;;;;4952936;28;20237;-74
2021/06/26 02:05:38;;;;;;;1.50;1.40;;;17.60;99.90;;;;;;4952188;28;20174;-75
2021/06/26 02:08:04;;;;;;;3.60;2.43;;;17.60;99.90;;;;;;4955324;28;20285;-75
2021/06/26 02:10:30;;;;;;;3.27;1.80;;;17.60;99.90;;;;;;4956013;28;20191;-75
2021/06/26 02:12:55;;;;;;;3.90;3.60;;;17.60;99.90;;;;;;4956411;29;20175;-74
2021/06/26 02:15:21;;;;;;;2.13;1.83;;;17.50;99.90;;;;;;4953969;29;20285;-74
2021/06/26 02:17:46;;;;;;;2.23;1.00;;;17.50;99.90;;;;;;4955914;29;20236;-74
2021/06/26 02:20:12;;;;;;;1.53;1.43;;;17.40;99.90;;;;;;4955954;28;20193;-74
2021/06/26 02:22:38;;;;;;;1.40;1.30;;;17.40;99.90;;;;;;4955398;28;20205;-74
2021/06/26 02:25:05;;;;;;;3.53;3.33;;;17.40;99.90;;;;;;4942868;28;20186;-75
2021/06/26 02:27:34;;;;;;;3.93;0.93;;;17.40;99.90;;;;;;4949813;28;20175;-75
2021/06/26 02:30:00;;;;;;;2.20;2.10;;;17.30;99.90;;;;;;4956961;28;20429;-75
2021/06/26 02:32:26;;;;;;;4.80;1.63;;;17.20;99.90;;;;;;4950502;28;20427;-75
2021/06/26 02:34:53;;;;;;;1.33;1.10;;;17.20;99.90;;;;;;4953386;29;20985;-74
2021/06/26 02:37:19;;;;;;;3.77;3.47;;;17.20;99.90;;;;;;4953212;29;20516;-75
2021/06/26 02:39:45;;;;;;;2.00;1.87;;;17.20;99.90;;;;;;4947455;28;20512;-74
2021/06/26 02:42:10;;;;;;;2.10;1.20;;;17.10;99.90;;;;;;4956827;28;20873;-75
2021/06/26 02:44:36;;;;;;;2.87;2.73;;;17.10;99.90;;;;;;4956683;29;20191;-75
2021/06/26 02:47:02;;;;;;;2.07;1.97;;;17.10;99.90;;;;;;4948912;29;20171;-75
2021/06/26 02:49:28;;;;;;;1.20;0.80;;;17.10;99.90;;;;;;4956897;28;20217;-75
2021/06/26 02:51:54;;;;;;;6.27;1.67;;;17.00;99.90;;;;;;4953998;28;20196;-75
2021/06/26 02:54:20;;;;;;;5.27;2.90;;;17.00;99.90;;;;;;4955511;28;20962;-75
2021/06/26 02:56:45;;;;;;;2.03;1.80;;;16.90;99.90;;;;;;4956840;28;20174;-75
2021/06/26 02:59:11;;;;;;;3.87;3.10;;;16.90;99.90;;;;;;4956636;29;20182;-75
2021/06/26 03:01:36;;;;;;;4.10;1.50;;;16.90;99.90;;;;;;4950298;29;20201;-75
2021/06/26 03:04:02;;;;;;;1.43;1.33;;;16.80;99.90;;;;;;4956886;28;20205;-75
2021/06/26 03:06:27;;;;;;;2.90;2.73;;;16.80;99.90;;;;;;4956539;29;20258;-75
2021/06/26 03:08:53;;;;;;;6.70;2.93;;;16.80;99.90;;;;;;4956594;28;20203;-75
2021/06/26 03:11:18;;;;;;;2.70;2.23;;;16.80;99.90;;;;;;4957269;28;20228;-75
2021/06/26 03:13:44;;;;;;;2.13;1.47;;;16.80;99.90;;;;;;4955703;29;20206;-75
2021/06/26 03:16:10;;;;;;;1.27;1.00;;;16.80;99.90;;;;;;4956143;28;20178;-75
2021/06/26 03:18:36;;;;;;;2.00;1.40;;;16.70;99.90;;;;;;4956199;28;20272;-75
2021/06/26 03:21:02;;;;;;;1.17;1.07;;;16.70;99.90;;;;;;4956593;28;20265;-75
2021/06/26 03:23:27;;;;;;;2.17;2.07;;;16.60;99.90;;;;;;4952547;28;20525;-75
2021/06/26 03:25:53;;;;;;;0.80;0.60;;;16.60;99.90;;;;;;4956362;28;20182;-75
2021/06/26 03:28:18;;;;;;;2.97;1.10;;;16.50;99.90;;;;;;4956428;28;20194;-75
2021/06/26 03:30:44;;;;;;;1.90;1.80;;;16.50;99.90;;;;;;4956309;29;20213;-75
2021/06/26 03:33:09;;;;;;;2.57;1.77;;;16.50;99.90;;;;;;4955804;28;20226;-75
2021/06/26 03:35:35;;;;;;;2.37;2.00;;;16.50;99.90;;;;;;4954854;28;20275;-75
2021/06/26 03:38:01;;;;;;;16.60;5.40;;;16.40;99.90;;;;;;4955339;29;20194;-75
2021/06/26 03:40:26;;;;;;;2.40;1.53;;;16.30;99.90;;;;;;4970636;28;20201;-75
2021/06/26 03:42:52;;;;;;;1.53;1.00;;;16.30;99.90;;;;;;4963190;28;20170;-75
2021/06/26 03:45:17;;;;;;;3.63;3.33;;;16.20;99.90;;;;;;4954618;29;20202;-75
2021/06/26 03:47:43;;;;;;;1.43;1.27;;;16.30;99.90;;;;;;4956068;28;20626;-75
2021/06/26 03:50:09;;;;;;;1.90;1.80;;;16.20;99.90;;;;;;4956175;28;20186;-75
2021/06/26 03:52:35;;;;;;;6.67;1.40;;;16.30;99.90;;;;;;4954106;28;20221;-75
2021/06/26 03:55:00;;;;;;;2.40;2.13;;;16.30;99.90;;;;;;4954826;29;20529;-74
2021/06/26 03:57:26;;;;;;;3.03;1.83;;;16.30;99.90;;;;;;4950898;29;20209;-74
2021/06/26 03:59:51;;;;;;;4.60;2.50;;;16.30;99.90;;;;;;4956442;28;20162;-74
2021/06/26 04:02:17;;;;;;;2.40;2.20;;;16.40;99.90;;;;;;4953950;28;20179;-74
2021/06/26 04:04:43;;;;;;;1.27;1.17;;;16.40;99.90;;;;;;4953000;29;20182;-74
2021/06/26 04:07:08;;;;;;;2.20;0.77;;;16.30;99.90;;;;;;4940556;28;20178;-74
2021/06/26 04:09:34;;;;;;;1.33;1.20;;;16.30;99.90;;;;;;4954291;28;20679;-75
2021/06/26 04:11:59;;;;;;;0.87;0.77;;;16.30;99.90;;;;;;4953103;28;20182;-74
2021/06/26 04:14:25;;;;;;;4.30;2.40;;;16.20;99.90;;;;;;4949547;29;20194;-74
2021/06/26 04:16:50;;;;;;;4.17;3.87;;;16.20;99.90;;;;;;4954317;28;20170;-75
2021/06/26 04:19:16;;;;;;;3.30;2.60;;;16.20;99.90;;;;;;4954907;29;20300;-75
2021/06/26 04:21:42;;;;;;;2.97;1.80;;;16.20;99.90;;;;;;4955000;28;20174;-75
2021/06/26 04:24:09;;;;;;;1.73;1.63;;;16.20;99.90;;;;;;4954414;28;20541;-74
2021/06/26 04:26:34;;;;;;;1.73;1.63;;;16.30;99.90;;;;;;4946479;28;20423;-74
2021/06/26 04:29:00;;;;;;;1.13;0.90;;;16.40;99.90;;;;;;4949486;28;20450;-74
2021/06/26 04:31:25;;;;;;;2.50;1.70;;;16.40;99.90;;;;;;4953507;28;20193;-74
2021/06/26 04:33:51;;;;;;;1.30;1.20;;;16.50;99.90;;;;;;4953983;29;20202;-74
2021/06/26 04:36:18;;;;;;;2.23;1.90;;;16.60;99.90;;;;;;4950695;28;20182;-75
2021/06/26 04:38:43;;;;;;;3.63;3.43;;;16.60;99.90;;;;;;4951856;29;20469;-79
2021/06/26 04:41:10;;;;;;;1.47;1.37;;;16.70;99.90;;;;;;4949903;29;20422;-78
2021/06/26 04:43:35;;;;;;;1.57;1.43;;;16.80;99.90;;;;;;4955932;28;20181;-78
2021/06/26 04:46:01;;;;;;;1.93;1.27;;;16.90;99.90;;;;;;4955723;29;20406;-77
2021/06/26 04:48:29;;;;;;;4.83;1.83;;;16.90;99.90;;;;;;4953949;29;20528;-79
2021/06/26 04:50:58;;;;;;;2.90;1.67;;;16.90;99.90;;;;;;4956003;29;20190;-79
2021/06/26 04:53:23;;;;;;;2.20;2.10;;;17.00;99.90;;;;;;4950187;28;20426;-78
2021/06/26 04:55:52;;;;;;;2.03;1.93;;;17.00;99.90;;;;;;4957430;28;20449;-79
2021/06/26 04:58:19;;;;;;;2.30;1.27;;;17.00;99.90;;;;;;4948757;29;20755;-78
2021/06/26 05:00:45;;;;;;;2.90;1.33;;;17.00;99.90;;;;;;4947355;29;20422;-78
2021/06/26 05:03:11;;;;;;;3.30;2.63;;;17.10;99.90;;;;;;4948146;29;20424;-79
2021/06/26 05:05:36;;;;;;;6.30;1.70;;;17.00;99.90;;;;;;4960191;28;20182;-78
2021/06/26 05:08:02;;;;;;;1.93;1.83;;;17.00;99.90;;;;;;4956070;29;20197;-79
2021/06/26 05:10:27;;;;;;;3.20;2.10;;;17.00;99.90;;;;;;4954877;29;20170;-79
2021/06/26 05:12:53;;;;;;;2.53;2.33;;;17.00;99.90;;;;;;4949497;28;20179;-78
2021/06/26 05:15:18;;;;;;;1.43;1.20;;;16.90;99.90;;;;;;4940346;29;20206;-77
2021/06/26 05:17:44;;;;;;;2.63;2.40;;;16.90;99.90;;;;;;4953408;29;20193;-78
2021/06/26 05:20:14;;;;;;;2.90;2.40;;;16.90;99.90;;;;;;4953593;29;20201;-79
2021/06/26 05:22:39;;;;;;;2.63;2.43;;;16.90;99.90;;;;;;4954349;28;20178;-79
2021/06/26 05:25:06;;;;;;;2.73;2.00;;;17.00;99.90;;;;;;4956440;28;20425;-79
2021/06/26 05:27:31;;;;;;;1.47;1.23;;;17.00;99.90;;;;;;4955097;28;20559;-79
2021/06/26 05:29:57;;;;;;;1.70;1.60;;;17.00;99.90;;;;;;4954141;28;20465;-78
2021/06/26 05:32:22;;;;;;;3.13;2.00;;;17.00;99.90;;;;;;4942828;29;20162;-78
2021/06/26 05:34:48;;;;;;;3.23;2.90;;;17.00;99.90;;;;;;4949316;29;20198;-78
2021/06/26 05:37:13;;;;;;;2.60;1.60;;;17.00;99.90;;;;;;4956213;29;20162;-78
2021/06/26 05:39:39;;;;;;;1.20;1.10;;;17.00;99.90;;;;;;4952833;28;20694;-78
2021/06/26 05:42:05;;;;;;;3.03;1.73;;;17.10;99.90;;;;;;4954225;28;20166;-77
2021/06/26 05:44:30;;;;;;;2.00;1.53;;;17.20;99.90;;;;;;4954147;28;20170;-79
2021/06/26 05:46:56;;;;;;;2.17;1.37;;;17.40;99.90;;;;;;4953247;29;20301;-78
2021/06/26 05:49:21;;;;;;;1.80;1.27;;;17.50;99.90;;;;;;4955589;29;20194;-78
2021/06/26 05:51:47;;;;;;;1.40;1.30;;;17.60;99.90;;;;;;4950694;28;20174;-79
2021/06/26 05:54:12;;;;;;;3.67;2.07;;;17.70;99.90;;;;;;4954496;28;20223;-78
2021/06/26 05:56:38;;;;;;;2.30;2.20;;;17.70;99.90;;;;;;4951254;28;20674;-77
2021/06/26 05:59:03;;;;;;;2.00;1.57;;;17.80;99.90;;;;;;4955044;29;20194;-77
2021/06/26 06:01:29;;;;;;;2.03;1.93;;;17.80;99.90;;;;;;4953930;29;20232;-78
2021/06/26 06:03:55;;;;;;;1.73;1.43;;;17.80;99.90;;;;;;4954427;28;20184;-78
2021/06/26 06:06:20;;;;;;;3.33;2.80;;;17.80;99.90;;;;;;4955355;29;20426;-77
2021/06/26 06:08:46;;;;;;;2.00;1.90;;;18.00;99.90;;;;;;4956632;28;20273;-77
2021/06/26 06:11:12;;;;;;;3.17;1.77;;;18.10;99.90;;;;;;4957068;29;20178;-78
2021/06/26 06:13:37;;;;;;;3.23;3.03;;;18.10;99.90;;;;;;4948674;28;20711;-78
2021/06/26 06:16:03;;;;;;;1.50;1.40;;;18.20;99.90;;;;;;4945790;29;20174;-78
2021/06/26 06:18:28;;;;;;;2.30;1.77;;;18.40;99.90;;;;;;4952089;28;20209;-79
2021/06/26 06:20:54;;;;;;;4.33;3.27;;;18.50;99.90;;;;;;4953910;28;20687;-77
2021/06/26 06:23:19;;;;;;;7.07;3.53;;;18.70;99.90;;;;;;4955015;28;20181;-79
2021/06/26 06:25:45;;;;;;;2.70;1.43;;;18.90;99.90;;;;;;4952048;29;20240;-77
2021/06/26 06:28:10;;;;;;;2.93;2.73;;;19.00;99.90;;;;;;4956745;28;20198;-78
2021/06/26 06:30:36;;;;;;;4.50;3.50;;;19.20;99.90;;;;;;4957879;29;20174;-78
2021/06/26 06:33:06;;;;;;;1.73;1.40;;;19.50;99.90;;;;;;4954999;28;20230;-77
2021/06/26 06:35:32;;;;;;;3.83;2.43;;;19.60;99.90;;;;;;4953262;28;20551;-79
2021/06/26 06:37:58;;;;;;;3.00;2.80;;;19.80;99.90;;;;;;4952733;28;20442;-78
2021/06/26 06:40:24;;;;;;;3.27;2.07;;;20.00;99.90;;;;;;4949294;29;20418;-78
2021/06/26 06:42:50;;;;;;;1.87;1.70;;;20.20;99.90;;;;;;4955494;29;20429;-78
2021/06/26 06:45:16;;;;;;;6.93;4.23;;;20.40;99.90;;;;;;4953842;28;20233;-78
2021/06/26 06:47:42;;;;;;;3.90;3.13;;;20.60;99.90;;;;;;4953870;28;20559;-79
2021/06/26 06:50:09;;;;;;;4.10;3.80;;;20.70;99.90;;;;;;4953060;29;20426;-78
2021/06/26 06:52:35;;;;;;;3.93;1.63;;;20.90;99.90;;;;;;4957665;28;20193;-80
2021/06/26 06:55:00;;;;;;;3.13;2.87;;;21.10;99.90;;;;;;4956712;28;20461;-78
2021/06/26 06:57:26;;;;;;;1.93;1.83;;;21.20;99.90;;;;;;4953311;28;20178;-79
2021/06/26 06:59:53;;;;;;;1.67;1.50;;;21.40;99.90;;;;;;4958261;28;20425;-77
2021/06/26 07:02:19;;;;;;;3.27;2.97;;;21.50;99.90;;;;;;4958010;28;20418;-78
2021/06/26 07:04:45;;;;;;;3.93;2.87;;;21.50;99.90;;;;;;4955378;28;20441;-77
2021/06/26 07:07:10;;;;;;;3.13;2.93;;;21.60;99.90;;;;;;4943241;29;20422;-78
2021/06/26 07:09:36;;;;;;;1.50;1.40;;;21.80;99.90;;;;;;4954897;29;20442;-79
2021/06/26 07:12:02;;;;;;;3.03;2.77;;;21.80;99.90;;;;;;4953028;28;20217;-78
2021/06/26 07:14:28;;;;;;;3.30;2.50;;;22.10;99.90;;;;;;4953226;28;20205;-77
2021/06/26 07:16:53;;;;;;;2.23;1.50;;;22.40;99.90;;;;;;4949776;28;20182;-76
2021/06/26 07:19:19;;;;;;;3.33;2.70;;;22.60;99.90;;;;;;4958129;28;20349;-78
2021/06/26 07:21:44;;;;;;;5.27;2.90;;;22.80;99.90;;;;;;4967687;28;20215;-78
2021/06/26 07:24:10;;;;;;;2.07;1.90;;;23.00;99.90;;;;;;4960403;28;20206;-79
2021/06/26 07:26:36;;;;;;;4.13;2.50;;;23.30;99.90;;;;;;4954151;28;20272;-79
2021/06/26 07:29:03;;;;;;;1.93;1.83;;;23.40;99.90;;;;;;4952718;28;20504;-77
2021/06/26 07:31:29;;;;;;;7.47;4.37;;;23.70;99.90;;;;;;4966628;28;20440;-78
2021/06/26 07:33:54;;;;;;;4.57;4.17;;;23.90;99.90;;;;;;4963341;28;20493;-77
2021/06/26 07:36:20;;;;;;;3.87;3.37;;;24.10;99.90;;;;;;4956961;28;20806;-78
2021/06/26 07:38:46;;;;;;;3.80;2.90;;;24.30;99.90;;;;;;4956353;28;20216;-79
2021/06/26 07:41:11;;;;;;;2.97;2.67;;;24.40;99.90;;;;;;4957210;28;20182;-78
2021/06/26 07:43:37;;;;;;;3.33;2.07;;;24.60;99.90;;;;;;4960413;28;20538;-78
2021/06/26 07:46:04;;;;;;;3.33;3.10;;;24.80;99.90;;;;;;4957746;28;21083;-78
2021/06/26 07:48:29;;;;;;;4.20;3.27;;;25.00;99.90;;;;;;4957261;28;20225;-78
2021/06/26 07:50:56;;;;;;;4.93;4.53;;;25.20;99.90;;;;;;4959610;28;20441;-79
2021/06/26 07:53:22;;;;;;;5.53;3.30;;;25.60;99.90;;;;;;4959899;28;20444;-78
2021/06/26 07:55:51;;;;;;;4.03;3.20;;;25.80;99.90;;;;;;4955107;28;20446;-78
2021/06/26 07:58:28;;;;;;;3.43;3.13;;;26.10;99.90;;;;;;4954404;28;20462;-78
2021/06/26 08:00:55;;;;;;;5.03;3.13;;;26.20;99.90;;;;;;4957606;28;20476;-78
2021/06/26 08:03:22;;;;;;;4.03;2.40;;;26.50;99.90;;;;;;4959996;28;20438;-78
2021/06/26 08:05:48;;;;;;;3.23;2.80;;;26.50;99.90;;;;;;4954983;29;20438;-78
2021/06/26 08:08:14;;;;;;;3.70;3.23;;;26.80;99.90;;;;;;4957657;28;20500;-78
2021/06/26 08:10:40;;;;;;;7.00;4.27;;;27.00;99.90;;;;;;4956364;28;20446;-78
2021/06/26 08:13:07;;;;;;;3.40;3.10;;;27.20;99.90;;;;;;4972151;28;20213;-78
2021/06/26 08:15:36;;;;;;;4.00;2.90;;;27.30;99.90;;;;;;4953133;28;20837;-78
2021/06/26 08:18:02;;;;;;;5.83;3.23;;;27.30;99.90;;;;;;4954308;28;20457;-79
2021/06/26 08:20:28;;;;;;;4.43;3.73;;;27.40;99.90;;;;;;4961416;28;20441;-79
2021/06/26 08:22:54;;;;;;;7.40;4.13;;;27.60;99.90;;;;;;4959438;28;20803;-78
2021/06/26 08:25:19;;;;;;;5.90;5.17;;;28.00;99.90;;;;;;4959222;28;20209;-79
2021/06/26 08:27:45;;;;;;;5.23;3.60;;;28.30;99.90;;;;;;4962561;28;20209;-79
2021/06/26 08:30:11;;;;;;;4.80;2.77;;;28.10;99.90;;;;;;4958940;28;20182;-78
2021/06/26 08:32:36;;;;;;;4.43;4.00;;;28.10;99.90;;;;;;4957136;28;20190;-78
2021/06/26 08:35:02;;;;;;;2.70;2.30;;;28.50;99.90;;;;;;4955713;28;20524;-78
2021/06/26 08:37:27;;;;;;;4.00;3.33;;;28.70;99.90;;;;;;4956114;28;20233;-79
2021/06/26 08:39:53;;;;;;;4.80;2.70;;;29.00;99.90;;;;;;4956318;28;20265;-79
2021/06/26 08:42:20;;;;;;;4.13;3.40;;;29.40;99.90;;;;;;4955568;29;20235;-78
2021/06/26 08:44:49;;;;;;;3.13;2.77;;;29.60;99.90;;;;;;4955196;28;20240;-79
2021/06/26 08:47:16;;;;;;;2.93;2.50;;;29.90;99.90;;;;;;4949512;28;20431;-79
2021/06/26 08:49:41;;;;;;;3.73;2.70;;;30.00;99.80;;;;;;4949979;28;20453;-79
2021/06/26 08:52:07;;;;;;;2.73;2.50;;;30.20;99.90;;;;;;4956680;28;20969;-79
2021/06/26 08:54:33;;;;;;;3.00;2.40;;;30.40;98.40;;;;;;4953891;28;20284;-79
2021/06/26 08:56:58;;;;;;;4.20;3.07;;;30.70;95.80;;;;;;4968445;28;20221;-79
2021/06/26 08:59:24;;;;;;;6.53;3.07;;;31.00;94.50;;;;;;4957898;28;20209;-79
2021/06/26 09:01:50;;;;;;;2.20;1.60;;;30.80;90.80;;;;;;4961170;28;20288;-79
2021/06/26 09:04:18;;;;;;;5.60;3.47;;;31.10;94.30;;;;;;4959781;28;20186;-79
2021/06/26 09:06:54;;;;;;;2.97;2.67;;;31.30;91.00;;;;;;4973604;28;20205;-79
2021/06/26 09:09:33;;;;;;;3.67;3.27;;;31.50;85.90;;;;;;4958813;29;20464;-79
2021/06/26 09:12:00;;;;;;;3.47;2.10;;;31.60;86.90;;;;;;4958063;28;20497;-80
2021/06/26 09:14:26;;;;;;;2.30;2.10;;;31.90;86.50;;;;;;4961355;28;20478;-80
2021/06/26 09:16:52;;;;;;;4.33;4.00;;;32.00;81.60;;;;;;4956692;28;20428;-79
2021/06/26 09:19:19;;;;;;;3.77;2.40;;;32.00;78.10;;;;;;4958494;28;20202;-79
2021/06/26 09:22:07;;;;;;;3.00;2.77;;;32.30;79.30;;;;;;4956038;28;20429;-79
2021/06/26 09:24:44;;;;;;;3.40;2.43;;;32.60;77.00;;;;;;4951417;28;20444;-79
2021/06/26 09:27:11;;;;;;;2.63;2.43;;;32.80;69.40;;;;;;4955450;28;20468;-78
2021/06/26 09:29:50;;;;;;;2.47;2.27;;;33.10;69.50;;;;;;4956110;28;20484;-79
2021/06/26 09:32:30;;;;;;;3.63;3.00;;;33.40;72.90;;;;;;4957173;28;20434;-78
2021/06/26 09:34:57;;;;;;;3.43;2.40;;;33.70;65.40;;;;;;4953756;28;20495;-79
2021/06/26 09:37:24;;;;;;;3.30;2.80;;;34.00;63.00;;;;;;4955182;28;20456;-79
2021/06/26 09:39:54;;;;;;;3.60;3.30;;;34.30;61.20;;;;;;4954680;28;20456;-78
2021/06/26 09:42:22;;;;;;;3.50;3.20;;;34.60;62.50;;;;;;4945468;28;20438;-78
2021/06/26 09:44:54;;;;;;;2.57;2.03;;;34.70;60.60;;;;;;4956258;28;20512;-78
2021/06/26 09:47:42;;;;;;;4.70;2.60;;;34.30;56.60;;;;;;4954009;28;20434;-78
2021/06/26 09:50:24;;;;;;;2.93;2.63;;;34.40;57.40;;;;;;4956291;28;20441;-78
2021/06/26 09:52:58;;;;;;;2.83;2.60;;;34.10;57.30;;;;;;4947988;29;20437;-78
2021/06/26 09:55:37;;;;;;;2.87;2.47;;;33.80;58.50;;;;;;4956291;28;20489;-78
2021/06/26 09:58:11;;;;;;;4.37;2.17;;;33.30;58.30;;;;;;4952788;28;21240;-79
2021/06/26 10:00:37;;;;;;;3.13;2.53;;;33.20;60.90;;;;;;4954668;28;20448;-78
2021/06/26 10:03:04;;;;;;;6.50;3.27;;;33.30;59.90;;;;;;4966099;28;20479;-78
2021/06/26 10:05:32;;;;;;;2.47;2.10;;;33.10;58.40;;;;;;4961307;28;20442;-79
2021/06/26 10:08:02;;;;;;;2.70;1.40;;;32.90;56.50;;;;;;4952693;28;21004;-79
2021/06/26 10:10:27;;;;;;;1.83;1.70;;;32.70;56.40;;;;;;4948472;28;20441;-78
2021/06/26 10:12:55;;;;;;;1.33;1.10;;;32.40;54.40;;;;;;4949996;28;20461;-77
2021/06/26 10:15:24;;;;;;;1.60;1.50;;;32.20;56.90;;;;;;4946942;28;20216;-79
2021/06/26 10:17:49;;;;;;;3.67;2.30;;;31.80;57.30;;;;;;4947417;28;20528;-78
2021/06/26 10:20:17;;;;;;;2.10;2.00;;;31.40;56.80;;;;;;4944859;28;20548;-78
2021/06/26 10:22:47;;;;;;;1.53;1.37;;;31.00;57.90;;;;;;4948994;28;20178;-78
2021/06/26 10:25:13;;;;;;;6.10;1.90;;;30.80;59.50;;;;;;4946183;28;20441;-77
2021/06/26 10:27:39;;;;;;;3.57;1.80;;;31.00;58.80;;;;;;4946593;28;20433;-78
2021/06/26 10:30:12;;;;;;;2.60;2.20;;;30.90;58.30;;;;;;4950560;29;20504;-78
2021/06/26 10:33:00;;;;;;;1.57;1.43;;;30.90;59.20;;;;;;4956875;28;20472;-78
2021/06/26 10:35:28;;;;;;;1.87;1.60;;;30.90;60.00;;;;;;4948775;28;21027;-77
2021/06/26 10:38:00;;;;;;;2.27;1.80;;;30.90;60.00;;;;;;4953112;29;20438;-78
2021/06/26 10:40:42;;;;;;;8.23;4.50;;;30.70;60.30;;;;;;4949653;29;20945;-78
2021/06/26 10:43:29;;;;;;;3.27;3.07;;;30.40;62.50;;;;;;4938661;29;20423;-78
2021/06/26 10:46:15;;;;;;;1.57;1.43;;;30.40;61.60;;;;;;4943498;29;20426;-78
2021/06/26 10:48:54;;;;;;;1.73;1.63;;;30.20;61.80;;;;;;4948247;28;20977;-78
2021/06/26 10:51:36;;;;;;;2.33;1.60;;;30.40;63.70;;;;;;4942833;29;20497;-78
2021/06/26 10:54:19;;;;;;;1.73;1.47;;;30.50;62.10;;;;;;4943615;28;20458;-78
2021/06/26 10:56:49;;;;;;;2.80;2.13;;;30.60;58.30;;;;;;4950364;29;20520;-77
2021/06/26 10:59:19;;;;;;;1.63;1.53;;;30.80;57.90;;;;;;4942154;29;20454;-78
2021/06/26 11:01:56;;;;;;;4.60;2.93;;;31.50;59.60;;;;;;4953386;29;21021;-77
2021/06/26 11:04:23;;;;;;;2.67;2.47;;;31.70;58.60;;;;;;4957164;28;20422;-77
2021/06/26 11:06:50;;;;;;;2.70;2.43;;;31.90;58.50;;;;;;4957645;28;20488;-78
2021/06/26 11:09:17;;;;;;;2.43;2.23;;;32.50;58.90;;;;;;4957092;28;20437;-77
2021/06/26 11:11:44;;;;;;;2.00;1.80;;;33.10;60.30;;;;;;4957112;28;20418;-77
2021/06/26 11:14:30;;;;;;;2.17;1.27;;;33.50;54.70;;;;;;4956615;28;20449;-78
2021/06/26 11:16:59;;;;;;;1.53;1.40;;;33.70;53.90;;;;;;4969404;28;20430;-77
2021/06/26 11:19:32;;;;;;;1.50;1.40;;;34.00;50.70;;;;;;4954960;28;20495;-75
2021/06/26 11:21:59;;;;;;;1.97;1.77;;;34.40;56.40;;;;;;4955305;29;20496;-75
2021/06/26 11:24:34;;;;;;;1.60;1.43;;;34.40;50.70;;;;;;4955720;28;20417;-77
2021/06/26 11:27:01;;;;;;;1.67;1.53;;;34.60;51.30;;;;;;4954217;28;20421;-76
2021/06/26 11:29:38;;;;;;;1.83;1.23;;;34.20;49.60;;;;;;4955111;29;20882;-76
2021/06/26 11:32:06;;;;;;;5.73;2.43;;;34.30;51.90;;;;;;4953889;28;21251;-76
2021/06/26 11:34:33;;;;;;;3.63;1.60;;;34.10;50.60;;;;;;4954717;28;21069;-77
2021/06/26 11:37:02;;;;;;;2.03;1.20;;;34.20;49.10;;;;;;4955253;28;20799;-76
2021/06/26 11:39:28;;;;;;;1.10;1.00;;;34.20;49.20;;;;;;4953239;29;20437;-76
2021/06/26 11:41:54;;;;;;;1.77;1.67;;;34.20;50.80;;;;;;4947564;28;20418;-77
2021/06/26 11:44:30;;;;;;;1.67;1.57;;;34.60;56.20;;;;;;4953621;28;20517;-77
2021/06/26 11:47:01;;;;;;;1.87;1.57;;;34.60;49.50;;;;;;4945821;28;20197;-77
2021/06/26 11:49:46;;;;;;;2.10;2.00;;;34.80;50.60;;;;;;4952345;28;20457;-76
2021/06/26 11:52:16;;;;;;;1.97;1.20;;;35.10;52.40;;;;;;4955027;29;20422;-76
2021/06/26 11:54:43;;;;;;;1.80;1.70;;;35.40;49.30;;;;;;4954920;29;20457;-77
2021/06/26 11:57:13;;;;;;;2.23;2.00;;;35.40;48.90;;;;;;4954635;28;20418;-76
2021/06/26 11:59:44;;;;;;;2.00;1.70;;;35.30;48.40;;;;;;4951696;28;20446;-77
2021/06/26 12:02:12;;;;;;;1.50;1.30;;;34.90;49.40;;;;;;4954703;28;20477;-77
2021/06/26 12:04:38;;;;;;;1.50;1.40;;;34.70;51.10;;;;;;4953694;28;20430;-77
2021/06/26 12:07:08;;;;;;;1.80;1.70;;;34.40;49.80;;;;;;4955229;28;20414;-77
2021/06/26 12:09:35;;;;;;;2.47;1.87;;;34.10;48.90;;;;;;4955100;28;20443;-76
2021/06/26 12:12:01;;;;;;;1.37;1.27;;;33.90;49.90;;;;;;4953160;28;20422;-77
2021/06/26 12:14:31;;;;;;;1.80;1.67;;;33.80;51.90;;;;;;4946068;28;20988;-77
2021/06/26 12:17:08;;;;;;;1.63;1.43;;;33.60;51.50;;;;;;4941522;28;20460;-77
2021/06/26 12:19:34;;;;;;;2.50;1.60;;;33.40;49.30;;;;;;4948296;28;20517;-76
2021/06/26 12:22:01;;;;;;;2.23;1.93;;;33.10;52.70;;;;;;4938490;29;20457;-76
2021/06/26 12:24:26;;;;;;;2.23;1.97;;;32.90;52.70;;;;;;4945493;29;20433;-75
2021/06/26 12:27:10;;;;;;;1.90;1.80;;;32.70;54.50;;;;;;4944536;28;20792;-75
2021/06/26 12:29:37;;;;;;;4.00;3.60;;;32.50;55.50;;;;;;4937593;29;20257;-76
2021/06/26 12:32:04;;;;;;;1.60;1.50;;;32.40;56.30;;;;;;4940352;28;20430;-75
2021/06/26 12:34:29;;;;;;;1.97;1.87;;;32.40;56.00;;;;;;4949779;29;20511;-76
2021/06/26 12:36:57;;;;;;;2.50;2.00;;;32.50;54.30;;;;;;4946070;28;20821;-75
2021/06/26 12:39:32;;;;;;;1.93;1.83;;;32.40;52.90;;;;;;4935933;29;20194;-76
2021/06/26 12:42:05;;;;;;;2.73;1.90;;;32.10;52.80;;;;;;4935685;29;20398;-76
2021/06/26 12:44:30;;;;;;;2.23;1.53;;;32.00;53.40;;;;;;4940494;29;20923;-76
2021/06/26 12:46:56;;;;;;;3.23;1.97;;;31.90;51.90;;;;;;4954658;28;20437;-76
2021/06/26 12:49:26;;;;;;;1.57;1.33;;;31.70;54.00;;;;;;4954091;28;20224;-77